createdAt,value
2022-11-16T00:00:53.069Z,89.31
2022-11-16T00:01:53.097Z,89.83
2022-11-16T00:02:53.040Z,90.13
2022-11-16T00:03:53.039Z,90.44
2022-11-16T00:04:53.001Z,90.54
2022-11-16T00:05:52.989Z,90.58
2022-11-16T00:06:52.990Z,91.05
2022-11-16T00:07:52.953Z,91.09
2022-11-16T00:08:52.956Z,91.71
2022-11-16T00:09:52.913Z,91.61
2022-11-16T00:10:52.898Z,91.50
2022-11-16T00:11:52.878Z,91.61
2022-11-16T00:12:52.852Z,91.61
2022-11-16T00:13:52.864Z,92.02
2022-11-16T00:14:52.819Z,92.43
2022-11-16T00:15:52.804Z,92.74
2022-11-16T00:16:52.790Z,92.98
2022-11-16T00:17:52.769Z,92.88
2022-11-16T00:18:52.779Z,93.15
2022-11-16T00:19:52.743Z,92.68
2022-11-16T00:20:52.724Z,93.49
2022-11-16T00:21:52.699Z,94.11
2022-11-16T00:22:52.679Z,94.32
2022-11-16T00:23:52.695Z,94.21
2022-11-16T00:24:52.648Z,94.21
2022-11-16T00:25:52.632Z,94.52
2022-11-16T00:26:52.611Z,94.62
2022-11-16T00:27:52.593Z,95.24
2022-11-16T00:28:52.605Z,94.21
2022-11-16T00:29:52.558Z,94.52
2022-11-16T00:30:52.547Z,95.24
2022-11-16T00:31:52.539Z,95.14
2022-11-16T00:32:52.509Z,95.03
2022-11-16T00:33:52.535Z,95.39
2022-11-16T00:34:52.492Z,96.20
2022-11-16T00:35:52.469Z,95.14
2022-11-16T00:36:52.458Z,95.28
2022-11-16T00:37:52.422Z,95.28
2022-11-16T00:38:52.429Z,95.86
2022-11-16T00:39:52.392Z,96.31
2022-11-16T00:40:52.372Z,95.44
2022-11-16T00:41:52.362Z,96.26
2022-11-16T00:42:52.339Z,96.06
2022-11-16T00:43:52.341Z,95.86
2022-11-16T00:44:52.335Z,95.79
2022-11-16T00:45:53.290Z,96.67
2022-11-16T00:46:52.280Z,96.78
2022-11-16T00:47:56.439Z,96.92
2022-11-16T00:48:53.314Z,96.92
2022-11-16T00:49:52.210Z,96.47
2022-11-16T00:50:52.190Z,96.88
2022-11-16T00:51:52.176Z,96.92
2022-11-16T00:52:52.165Z,96.57
2022-11-16T00:53:52.194Z,96.72
2022-11-16T00:54:52.133Z,96.62
2022-11-16T00:55:52.120Z,96.62
2022-11-16T00:56:52.123Z,97.44
2022-11-16T00:57:52.083Z,97.03
2022-11-16T00:58:52.088Z,96.67
2022-11-16T00:59:52.037Z,96.37
2022-11-16T01:00:52.060Z,96.31
2022-11-16T01:01:52.040Z,96.00
2022-11-16T01:02:51.985Z,96.41
2022-11-16T01:03:52.033Z,96.62
2022-11-16T01:04:51.973Z,96.10
2022-11-16T01:05:51.957Z,96.82
2022-11-16T01:06:52.581Z,96.62
2022-11-16T01:07:51.898Z,96.92
2022-11-16T01:08:51.880Z,96.62
2022-11-16T01:09:51.895Z,96.72
2022-11-16T01:10:51.850Z,96.82
2022-11-16T01:11:51.833Z,96.10
2022-11-16T01:12:51.828Z,96.62
2022-11-16T01:13:51.800Z,96.66
2022-11-16T01:14:51.799Z,96.62
2022-11-16T01:15:51.759Z,96.62
2022-11-16T01:17:31.645Z,96.92
2022-11-16T01:17:51.728Z,96.82
2022-11-16T01:18:51.712Z,96.62
2022-11-16T01:19:51.734Z,96.72
2022-11-16T01:20:51.681Z,96.62
2022-11-16T01:21:51.660Z,96.51
2022-11-16T01:22:51.647Z,96.41
2022-11-16T01:23:51.624Z,96.31
2022-11-16T01:24:51.635Z,96.41
2022-11-16T01:25:51.599Z,96.31
2022-11-16T01:26:51.577Z,96.82
2022-11-16T01:27:51.559Z,97.03
2022-11-16T01:28:51.549Z,96.72
2022-11-16T01:29:51.550Z,96.72
2022-11-16T01:30:51.513Z,96.72
2022-11-16T01:31:51.491Z,97.44
2022-11-16T01:32:51.474Z,98.05
2022-11-16T01:33:51.460Z,98.05
2022-11-16T01:34:51.464Z,97.54
2022-11-16T01:35:51.428Z,98.41
2022-11-16T01:36:51.403Z,97.23
2022-11-16T01:37:51.387Z,97.85
2022-11-16T01:38:51.370Z,98.46
2022-11-16T01:39:51.380Z,98.05
2022-11-16T01:40:51.339Z,97.99
2022-11-16T01:41:51.321Z,98.87
2022-11-16T01:42:51.301Z,98.30
2022-11-16T01:43:51.282Z,98.46
2022-11-16T01:44:51.293Z,98.61
2022-11-16T01:45:51.249Z,98.10
2022-11-16T01:46:51.232Z,96.87
2022-11-16T01:47:51.269Z,98.10
2022-11-16T01:48:51.215Z,97.38
2022-11-16T01:49:51.214Z,97.79
2022-11-16T01:50:51.161Z,98.25
2022-11-16T01:51:51.145Z,97.85
2022-11-16T01:52:51.135Z,97.44
2022-11-16T01:53:51.117Z,98.51
2022-11-16T01:54:51.121Z,99.02
2022-11-16T01:55:51.073Z,98.51
2022-11-16T01:56:51.061Z,98.61
2022-11-16T01:57:51.037Z,98.51
2022-11-16T01:58:51.024Z,98.86
2022-11-16T01:59:51.041Z,99.48
2022-11-16T02:00:51.017Z,98.82
2022-11-16T02:01:50.985Z,98.82
2022-11-16T02:02:50.951Z,98.41
2022-11-16T02:03:50.948Z,98.10
2022-11-16T02:04:50.947Z,97.99
2022-11-16T02:05:50.921Z,98.61
2022-11-16T02:06:50.902Z,98.20
2022-11-16T02:07:50.873Z,98.92
2022-11-16T02:08:50.857Z,98.61
2022-11-16T02:09:50.864Z,98.45
2022-11-16T02:10:50.828Z,99.02
2022-11-16T02:11:50.813Z,99.12
2022-11-16T02:12:50.786Z,99.54
2022-11-16T02:13:51.578Z,98.96
2022-11-16T02:14:51.786Z,98.92
2022-11-16T02:15:50.742Z,99.22
2022-11-16T02:16:50.722Z,99.54
2022-11-16T02:17:50.700Z,99.38
2022-11-16T02:18:50.683Z,98.96
2022-11-16T02:19:50.702Z,99.84
2022-11-16T02:20:50.647Z,99.17
2022-11-16T02:21:50.635Z,99.07
2022-11-16T02:22:50.617Z,98.96
2022-11-16T02:23:50.603Z,99.58
2022-11-16T02:24:50.610Z,99.99
2022-11-16T02:25:50.562Z,99.83
2022-11-16T02:26:50.554Z,99.89
2022-11-16T02:27:50.530Z,99.99
2022-11-16T02:28:50.511Z,99.99
2022-11-16T02:29:50.517Z,99.99
2022-11-16T02:30:50.479Z,99.79
2022-11-16T02:31:50.454Z,99.99
2022-11-16T02:32:50.439Z,99.99
2022-11-16T02:33:50.420Z,99.99
2022-11-16T02:34:50.427Z,99.99
2022-11-16T02:35:50.390Z,99.99
2022-11-16T02:36:50.367Z,99.99
2022-11-16T02:37:50.352Z,99.99
2022-11-16T02:38:50.331Z,99.99
2022-11-16T02:39:50.339Z,99.99
2022-11-16T02:40:50.291Z,99.99
2022-11-16T02:41:50.280Z,99.99
2022-11-16T02:42:50.255Z,99.99
2022-11-16T02:43:50.243Z,99.99
2022-11-16T02:44:50.248Z,99.99
2022-11-16T02:45:50.204Z,99.99
2022-11-16T02:46:50.213Z,99.99
2022-11-16T02:47:50.177Z,99.99
2022-11-16T02:48:50.156Z,99.99
2022-11-16T02:49:50.168Z,99.99
2022-11-16T02:50:50.127Z,99.99
2022-11-16T02:51:50.105Z,99.99
2022-11-16T02:52:50.085Z,99.99
2022-11-16T02:53:50.063Z,99.99
2022-11-16T02:54:50.076Z,99.99
2022-11-16T02:55:50.074Z,99.99
2022-11-16T02:56:50.008Z,99.99
2022-11-16T02:57:49.989Z,99.99
2022-11-16T02:58:49.998Z,99.99
2022-11-16T02:59:49.996Z,99.99
2022-11-16T03:00:50.632Z,99.99
2022-11-16T03:01:50.940Z,99.99
2022-11-16T03:02:49.909Z,99.99
2022-11-16T03:03:49.912Z,99.99
2022-11-16T03:04:49.910Z,99.99
2022-11-16T03:05:49.851Z,99.99
2022-11-16T03:06:49.866Z,99.99
2022-11-16T03:07:49.837Z,99.99
2022-11-16T03:08:49.801Z,99.99
2022-11-16T03:09:49.805Z,99.99
2022-11-16T03:10:49.776Z,99.99
2022-11-16T03:11:49.750Z,99.99
2022-11-16T03:12:49.725Z,99.99
2022-11-16T03:13:49.707Z,99.99
2022-11-16T03:14:49.734Z,99.99
2022-11-16T03:15:49.670Z,99.99
2022-11-16T03:16:49.650Z,99.99
2022-11-16T03:17:49.633Z,99.99
2022-11-16T03:18:49.617Z,99.99
2022-11-16T03:19:49.630Z,99.99
2022-11-16T03:20:49.582Z,99.99
2022-11-16T03:21:49.562Z,99.99
2022-11-16T03:22:49.548Z,99.99
2022-11-16T03:23:49.524Z,99.99
2022-11-16T03:24:49.533Z,99.99
2022-11-16T03:25:49.509Z,99.99
2022-11-16T03:26:49.473Z,99.99
2022-11-16T03:27:49.462Z,99.99
2022-11-16T03:28:49.437Z,99.99
2022-11-16T03:29:49.448Z,99.99
2022-11-16T03:30:49.406Z,99.99
2022-11-16T03:32:30.250Z,99.99
2022-11-16T03:32:49.374Z,99.99
2022-11-16T03:33:49.357Z,99.99
2022-11-16T03:34:49.361Z,99.99
2022-11-16T03:35:49.325Z,99.99
2022-11-16T03:36:49.319Z,99.99
2022-11-16T03:37:49.287Z,99.99
2022-11-16T03:38:49.262Z,99.99
2022-11-16T03:39:49.274Z,99.99
2022-11-16T03:40:49.231Z,99.99
2022-11-16T03:41:49.236Z,99.99
2022-11-16T03:42:49.198Z,99.99
2022-11-16T03:43:49.177Z,99.99
2022-11-16T03:44:49.189Z,99.99
2022-11-16T03:45:49.141Z,99.99
2022-11-16T03:46:49.178Z,99.99
2022-11-16T03:47:49.139Z,99.99
2022-11-16T03:48:49.092Z,99.99
2022-11-16T03:49:49.112Z,99.99
2022-11-16T03:50:49.055Z,99.99
2022-11-16T03:51:49.039Z,99.99
2022-11-16T03:52:49.027Z,99.99
2022-11-16T03:53:49.005Z,99.99
2022-11-16T03:54:48.987Z,99.99
2022-11-16T03:55:50.091Z,99.99
2022-11-16T03:56:49.952Z,99.99
2022-11-16T03:57:48.933Z,99.99
2022-11-16T03:58:48.922Z,99.99
2022-11-16T03:59:48.934Z,99.99
2022-11-16T04:00:48.924Z,99.99
2022-11-16T04:01:48.867Z,99.99
2022-11-16T04:02:48.875Z,99.99
2022-11-16T04:03:48.857Z,99.99
2022-11-16T04:04:48.863Z,99.99
2022-11-16T04:05:48.833Z,99.99
2022-11-16T04:06:48.842Z,99.99
2022-11-16T04:07:48.762Z,99.99
2022-11-16T04:08:49.748Z,99.99
2022-11-16T04:09:48.736Z,99.99
2022-11-16T04:10:48.744Z,99.99
2022-11-16T04:11:48.691Z,99.99
2022-11-16T04:12:48.678Z,99.99
2022-11-16T04:13:48.694Z,99.99
2022-11-16T04:14:48.644Z,99.99
2022-11-16T04:15:48.650Z,99.99
2022-11-16T04:16:48.607Z,99.99
2022-11-16T04:17:48.611Z,99.99
2022-11-16T04:18:48.573Z,99.99
2022-11-16T04:19:48.551Z,99.99
2022-11-16T04:20:48.564Z,99.99
2022-11-16T04:21:48.522Z,99.99
2022-11-16T04:22:48.517Z,99.99
2022-11-16T04:23:48.487Z,99.99
2022-11-16T04:24:48.481Z,99.99
2022-11-16T04:25:49.482Z,99.99
2022-11-16T04:26:48.445Z,99.99
2022-11-16T04:27:48.421Z,99.99
2022-11-16T04:28:48.403Z,99.99
2022-11-16T04:29:48.387Z,99.99
2022-11-16T04:30:48.388Z,99.99
2022-11-16T04:31:48.371Z,99.99
2022-11-16T04:32:48.334Z,99.99
2022-11-16T04:33:48.312Z,99.99
2022-11-16T04:34:48.296Z,99.99
2022-11-16T04:35:48.330Z,99.99
2022-11-16T04:36:48.267Z,99.99
2022-11-16T04:37:48.255Z,99.99
2022-11-16T04:38:48.223Z,99.99
2022-11-16T04:39:48.204Z,99.99
2022-11-16T04:40:48.219Z,99.99
2022-11-16T04:41:48.177Z,99.99
2022-11-16T04:42:48.157Z,99.99
2022-11-16T04:43:48.139Z,99.99
2022-11-16T04:44:48.123Z,99.99
2022-11-16T04:45:48.148Z,99.99
2022-11-16T04:46:48.083Z,99.99
2022-11-16T04:47:48.073Z,99.99
2022-11-16T04:48:48.050Z,99.99
2022-11-16T04:49:48.033Z,99.99
2022-11-16T04:50:48.045Z,99.99
2022-11-16T04:51:47.997Z,99.99
2022-11-16T04:52:47.996Z,99.99
2022-11-16T04:53:47.964Z,99.99
2022-11-16T04:54:47.949Z,99.99
2022-11-16T04:55:47.963Z,99.99
2022-11-16T04:56:47.907Z,99.99
2022-11-16T04:57:47.887Z,99.99
2022-11-16T04:58:48.873Z,99.99
2022-11-16T04:59:47.855Z,99.99
2022-11-16T05:00:47.866Z,99.99
2022-11-16T05:01:47.867Z,99.99
2022-11-16T05:02:47.801Z,99.99
2022-11-16T05:03:47.783Z,99.99
2022-11-16T05:04:47.769Z,99.99
2022-11-16T05:05:47.768Z,99.99
2022-11-16T05:06:47.807Z,99.99
2022-11-16T05:07:47.714Z,99.99
2022-11-16T05:08:47.698Z,99.99
2022-11-16T05:09:47.677Z,99.99
2022-11-16T05:10:47.691Z,99.99
2022-11-16T05:11:47.640Z,99.99
2022-11-16T05:12:47.638Z,99.99
2022-11-16T05:13:47.603Z,99.99
2022-11-16T05:14:47.602Z,99.99
2022-11-16T05:15:47.597Z,99.99
2022-11-16T05:16:47.550Z,99.99
2022-11-16T05:17:47.537Z,99.99
2022-11-16T05:18:47.526Z,99.99
2022-11-16T05:19:47.506Z,99.99
2022-11-16T05:20:47.508Z,99.99
2022-11-16T05:21:47.469Z,99.99
2022-11-16T05:22:47.445Z,99.99
2022-11-16T05:23:47.443Z,99.99
2022-11-16T05:24:47.413Z,99.99
2022-11-16T05:25:47.417Z,99.99
2022-11-16T05:26:47.370Z,99.99
2022-11-16T05:27:47.363Z,99.99
2022-11-16T05:28:47.341Z,99.99
2022-11-16T05:29:47.345Z,99.99
2022-11-16T05:30:47.329Z,99.99
2022-11-16T05:31:47.296Z,99.99
2022-11-16T05:32:47.270Z,99.99
2022-11-16T05:33:47.253Z,99.99
2022-11-16T05:34:47.248Z,99.99
2022-11-16T05:35:47.241Z,99.99
2022-11-16T05:36:47.237Z,99.99
2022-11-16T05:37:47.178Z,99.99
2022-11-16T05:38:47.168Z,99.99
2022-11-16T05:39:47.181Z,99.99
2022-11-16T05:40:47.179Z,99.99
2022-11-16T05:41:47.230Z,99.99
2022-11-16T05:42:47.100Z,99.99
2022-11-16T05:43:47.102Z,99.99
2022-11-16T05:44:47.060Z,99.99
2022-11-16T05:45:47.044Z,99.99
2022-11-16T05:46:47.057Z,99.99
2022-11-16T05:47:47.002Z,99.99
2022-11-16T05:48:47.013Z,99.99
2022-11-16T05:50:27.852Z,99.99
2022-11-16T05:50:46.983Z,99.99
2022-11-16T05:51:46.948Z,99.99
2022-11-16T05:52:46.924Z,99.99
2022-11-16T05:53:46.907Z,99.99
2022-11-16T05:54:46.887Z,99.99
2022-11-16T05:55:46.953Z,99.99
2022-11-16T05:56:46.852Z,99.99
2022-11-16T05:57:46.833Z,99.99
2022-11-16T05:58:46.844Z,99.99
2022-11-16T05:59:46.803Z,99.99
2022-11-16T06:00:46.814Z,99.99
2022-11-16T06:01:46.761Z,99.99
2022-11-16T06:02:46.779Z,99.99
2022-11-16T06:03:46.726Z,99.99
2022-11-16T06:04:46.712Z,99.99
2022-11-16T06:05:46.718Z,99.99
2022-11-16T06:06:46.675Z,99.99
2022-11-16T06:07:46.654Z,99.99
2022-11-16T06:08:46.636Z,99.99
2022-11-16T06:09:46.665Z,99.99
2022-11-16T06:10:46.644Z,99.99
2022-11-16T06:11:46.583Z,99.99
2022-11-16T06:12:46.584Z,99.99
2022-11-16T06:13:46.553Z,99.99
2022-11-16T06:14:46.535Z,99.99
2022-11-16T06:15:52.230Z,99.99
2022-11-16T06:16:48.679Z,99.99
2022-11-16T06:17:46.479Z,99.99
2022-11-16T06:18:46.461Z,99.99
2022-11-16T06:19:46.448Z,99.99
2022-11-16T06:20:46.451Z,99.99
2022-11-16T06:21:46.405Z,99.99
2022-11-16T06:22:46.391Z,99.99
2022-11-16T06:23:46.376Z,99.99
2022-11-16T06:24:46.355Z,99.99
2022-11-16T06:25:46.372Z,99.99
2022-11-16T06:26:46.328Z,99.99
2022-11-16T06:27:46.303Z,99.99
2022-11-16T06:28:46.302Z,99.99
2022-11-16T06:29:46.288Z,99.99
2022-11-16T06:30:46.242Z,99.99
2022-11-16T06:31:46.258Z,99.99
2022-11-16T06:32:46.856Z,99.99
2022-11-16T06:33:46.207Z,99.99
2022-11-16T06:34:46.215Z,99.99
2022-11-16T06:35:46.186Z,99.99
2022-11-16T06:36:46.195Z,99.99
2022-11-16T06:37:46.137Z,99.99
2022-11-16T06:38:46.103Z,99.99
2022-11-16T06:39:46.121Z,99.99
2022-11-16T06:40:46.065Z,99.99
2022-11-16T06:41:46.081Z,99.99
2022-11-16T06:42:46.038Z,99.99
2022-11-16T06:43:46.022Z,99.99
2022-11-16T06:44:46.002Z,99.99
2022-11-16T06:45:45.984Z,99.99
2022-11-16T06:46:45.979Z,99.99
2022-11-16T06:47:47.079Z,99.99
2022-11-16T06:48:45.933Z,99.99
2022-11-16T06:49:45.913Z,99.99
2022-11-16T06:50:45.900Z,99.99
2022-11-16T06:51:45.908Z,99.99
2022-11-16T06:52:45.859Z,99.99
2022-11-16T06:53:45.860Z,99.99
2022-11-16T06:54:45.823Z,99.99
2022-11-16T06:55:45.814Z,99.99
2022-11-16T06:56:45.859Z,99.99
2022-11-16T06:57:46.019Z,99.99
2022-11-16T06:58:45.755Z,99.99
2022-11-16T06:59:45.762Z,99.99
2022-11-16T07:00:45.758Z,99.99
2022-11-16T07:01:45.757Z,99.99
2022-11-16T07:02:45.678Z,99.99
2022-11-16T07:03:45.661Z,99.99
2022-11-16T07:04:45.685Z,99.99
2022-11-16T07:05:46.644Z,99.99
2022-11-16T07:06:45.642Z,99.99
2022-11-16T07:07:45.594Z,99.99
2022-11-16T07:08:45.583Z,99.99
2022-11-16T07:09:45.564Z,99.99
2022-11-16T07:10:45.535Z,99.99
2022-11-16T07:11:46.559Z,99.99
2022-11-16T07:12:45.504Z,99.99
2022-11-16T07:13:45.512Z,99.99
2022-11-16T07:14:45.486Z,99.99
2022-11-16T07:15:45.462Z,99.99
2022-11-16T07:16:45.656Z,99.99
2022-11-16T07:17:45.416Z,99.99
2022-11-16T07:18:45.403Z,99.99
2022-11-16T07:19:45.375Z,99.99
2022-11-16T07:20:46.370Z,99.99
2022-11-16T07:21:45.373Z,99.99
2022-11-16T07:22:45.346Z,99.99
2022-11-16T07:23:45.322Z,99.99
2022-11-16T07:24:45.302Z,99.99
2022-11-16T07:25:45.296Z,99.99
2022-11-16T07:26:45.292Z,99.99
2022-11-16T07:27:45.246Z,99.99
2022-11-16T07:28:48.479Z,99.99
2022-11-16T07:29:46.209Z,99.99
2022-11-16T07:30:45.193Z,99.99
2022-11-16T07:31:45.200Z,99.99
2022-11-16T07:32:45.175Z,99.99
2022-11-16T07:33:45.164Z,99.99
2022-11-16T07:34:45.130Z,99.99
2022-11-16T07:35:45.120Z,99.99
2022-11-16T07:36:45.192Z,99.99
2022-11-16T07:37:45.075Z,99.99
2022-11-16T07:38:45.063Z,99.99
2022-11-16T07:39:45.040Z,99.99
2022-11-16T07:40:45.020Z,99.99
2022-11-16T07:41:45.802Z,99.99
2022-11-16T07:42:51.814Z,99.99
2022-11-16T07:43:49.904Z,99.99
2022-11-16T07:44:45.951Z,99.99
2022-11-16T07:45:44.932Z,99.99
2022-11-16T07:46:47.109Z,99.99
2022-11-16T07:47:45.907Z,99.99
2022-11-16T07:48:44.874Z,99.99
2022-11-16T07:49:44.858Z,99.99
2022-11-16T07:50:44.855Z,99.99
2022-11-16T07:51:44.842Z,99.99
2022-11-16T07:52:45.053Z,99.99
2022-11-16T07:53:44.826Z,99.99
2022-11-16T07:54:44.773Z,99.99
2022-11-16T07:55:45.744Z,99.99
2022-11-16T07:56:44.777Z,99.99
2022-11-16T07:57:47.942Z,99.99
2022-11-16T07:58:45.706Z,99.99
2022-11-16T07:59:44.679Z,99.99
2022-11-16T08:00:44.679Z,99.99
2022-11-16T08:01:44.730Z,99.99
2022-11-16T08:02:44.626Z,99.99
2022-11-16T08:03:44.619Z,99.99
2022-11-16T08:04:44.590Z,99.99
2022-11-16T08:05:44.571Z,99.99
2022-11-16T08:06:44.583Z,99.99
2022-11-16T08:07:44.538Z,99.99
2022-11-16T08:08:45.099Z,99.99
2022-11-16T08:09:44.552Z,99.99
2022-11-16T08:10:44.485Z,99.99
2022-11-16T08:11:44.491Z,99.99
2022-11-16T08:12:44.450Z,99.99
2022-11-16T08:13:44.447Z,99.99
2022-11-16T08:14:45.025Z,99.99
2022-11-16T08:15:44.398Z,99.99
2022-11-16T08:16:44.407Z,99.99
2022-11-16T08:17:44.360Z,99.99
2022-11-16T08:18:44.346Z,99.99
2022-11-16T08:19:44.330Z,99.99
2022-11-16T08:20:44.310Z,99.99
2022-11-16T08:21:44.318Z,99.99
2022-11-16T08:22:44.279Z,99.99
2022-11-16T08:23:44.256Z,99.99
2022-11-16T08:24:44.244Z,99.99
2022-11-16T08:25:44.227Z,99.99
2022-11-16T08:26:44.229Z,99.99
2022-11-16T08:27:44.191Z,99.99
2022-11-16T08:28:44.172Z,99.99
2022-11-16T08:29:44.147Z,99.99
2022-11-16T08:30:46.362Z,99.99
2022-11-16T08:31:44.142Z,99.99
2022-11-16T08:32:44.094Z,99.99
2022-11-16T08:33:44.640Z,99.99
2022-11-16T08:34:44.097Z,99.99
2022-11-16T08:35:44.042Z,99.99
2022-11-16T08:36:44.046Z,99.99
2022-11-16T08:37:44.008Z,99.99
2022-11-16T08:38:43.984Z,99.99
2022-11-16T08:39:43.976Z,99.99
2022-11-16T08:40:43.952Z,99.99
2022-11-16T08:41:43.964Z,99.99
2022-11-16T08:42:44.182Z,99.99
2022-11-16T08:43:44.570Z,99.99
2022-11-16T08:44:43.887Z,99.99
2022-11-16T08:45:43.864Z,99.99
2022-11-16T08:46:43.857Z,99.99
2022-11-16T08:47:44.825Z,99.99
2022-11-16T08:48:43.802Z,99.99
2022-11-16T08:49:49.258Z,99.99
2022-11-16T08:51:10.524Z,99.99
2022-11-16T08:51:45.786Z,99.99
2022-11-16T08:52:43.735Z,99.99
2022-11-16T08:53:43.716Z,99.99
2022-11-16T08:54:43.700Z,99.99
2022-11-16T08:55:43.677Z,99.99
2022-11-16T08:56:43.771Z,99.99
2022-11-16T08:57:43.649Z,99.99
2022-11-16T08:58:43.643Z,99.99
2022-11-16T08:59:43.605Z,99.99
2022-11-16T09:00:43.585Z,99.99
2022-11-16T09:01:43.647Z,99.99
2022-11-16T09:02:43.546Z,99.99
2022-11-16T09:03:43.537Z,99.99
2022-11-16T09:04:43.507Z,99.99
2022-11-16T09:05:43.490Z,99.99
2022-11-16T09:06:43.493Z,99.99
2022-11-16T09:07:43.452Z,99.99
2022-11-16T09:08:43.428Z,99.99
2022-11-16T09:09:43.414Z,99.99
2022-11-16T09:10:43.396Z,99.99
2022-11-16T09:11:43.401Z,99.99
2022-11-16T09:12:43.357Z,99.99
2022-11-16T09:13:43.332Z,99.99
2022-11-16T09:14:43.318Z,99.99
2022-11-16T09:15:43.309Z,99.99
2022-11-16T09:16:43.302Z,99.99
2022-11-16T09:17:43.261Z,99.99
2022-11-16T09:18:43.239Z,99.99
2022-11-16T09:19:43.227Z,99.99
2022-11-16T09:20:43.208Z,99.99
2022-11-16T09:21:43.211Z,99.99
2022-11-16T09:22:43.166Z,99.99
2022-11-16T09:23:43.147Z,99.99
2022-11-16T09:24:43.121Z,99.99
2022-11-16T09:25:43.106Z,99.99
2022-11-16T09:26:43.111Z,99.99
2022-11-16T09:27:43.060Z,99.99
2022-11-16T09:28:43.053Z,99.99
2022-11-16T09:29:43.027Z,99.99
2022-11-16T09:30:43.021Z,99.99
2022-11-16T09:31:43.013Z,99.99
2022-11-16T09:32:42.983Z,99.99
2022-11-16T09:33:42.963Z,99.99
2022-11-16T09:34:42.930Z,99.99
2022-11-16T09:35:42.907Z,99.99
2022-11-16T09:36:43.001Z,99.99
2022-11-16T09:37:42.885Z,99.99
2022-11-16T09:39:10.447Z,99.99
2022-11-16T09:39:44.898Z,99.99
2022-11-16T09:40:43.795Z,99.99
2022-11-16T09:41:42.798Z,99.99
2022-11-16T09:42:42.801Z,99.99
2022-11-16T09:43:46.049Z,99.99
2022-11-16T09:44:43.821Z,99.99
2022-11-16T09:45:42.722Z,99.99
2022-11-16T09:46:42.704Z,99.99
2022-11-16T09:47:42.706Z,99.99
2022-11-16T09:48:42.664Z,99.99
2022-11-16T09:49:42.643Z,99.99
2022-11-16T09:50:42.616Z,99.99
2022-11-16T09:51:42.601Z,99.99
2022-11-16T09:52:42.603Z,99.99
2022-11-16T09:53:42.561Z,99.99
2022-11-16T09:54:42.548Z,99.99
2022-11-16T09:55:42.524Z,99.99
2022-11-16T09:56:42.503Z,99.99
2022-11-16T09:57:43.512Z,99.99
2022-11-16T09:58:42.466Z,99.99
2022-11-16T09:59:42.450Z,99.99
2022-11-16T10:00:42.562Z,99.99
2022-11-16T10:01:42.412Z,99.99
2022-11-16T10:02:42.416Z,99.99
2022-11-16T10:03:42.377Z,99.99
2022-11-16T10:04:42.358Z,99.99
2022-11-16T10:05:42.341Z,99.99
2022-11-16T10:06:42.352Z,99.99
2022-11-16T10:07:42.324Z,99.99
2022-11-16T10:08:42.278Z,99.99
2022-11-16T10:09:42.262Z,99.99
2022-11-16T10:10:42.269Z,99.99
2022-11-16T10:11:42.226Z,99.99
2022-11-16T10:12:42.233Z,99.99
2022-11-16T10:13:42.188Z,99.99
2022-11-16T10:14:42.175Z,99.99
2022-11-16T10:15:42.158Z,99.99
2022-11-16T10:16:42.212Z,99.99
2022-11-16T10:17:42.143Z,99.99
2022-11-16T10:18:42.093Z,99.99
2022-11-16T10:19:42.079Z,99.99
2022-11-16T10:20:42.060Z,99.99
2022-11-16T10:21:42.036Z,99.99
2022-11-16T10:22:42.043Z,99.99
2022-11-16T10:23:42.008Z,99.99
2022-11-16T10:24:41.993Z,99.99
2022-11-16T10:25:41.972Z,99.99
2022-11-16T10:26:41.945Z,99.99
2022-11-16T10:27:41.948Z,99.99
2022-11-16T10:28:41.907Z,99.99
2022-11-16T10:29:41.892Z,99.99
2022-11-16T10:30:41.884Z,99.99
2022-11-16T10:31:41.852Z,99.99
2022-11-16T10:32:41.856Z,99.99
2022-11-16T10:33:41.808Z,99.99
2022-11-16T10:34:41.796Z,99.99
2022-11-16T10:35:41.769Z,99.99
2022-11-16T10:36:41.757Z,99.99
2022-11-16T10:37:41.760Z,99.99
2022-11-16T10:38:41.713Z,99.99
2022-11-16T10:39:41.694Z,99.99
2022-11-16T10:40:41.678Z,99.99
2022-11-16T10:41:41.651Z,99.99
2022-11-16T10:42:41.657Z,99.99
2022-11-16T10:43:41.614Z,99.79
2022-11-16T10:44:41.591Z,99.89
2022-11-16T10:45:41.573Z,99.27
2022-11-16T10:46:41.551Z,99.58
2022-11-16T10:47:41.566Z,98.66
2022-11-16T10:48:41.588Z,98.46
2022-11-16T10:49:41.500Z,99.52
2022-11-16T10:50:41.477Z,99.43
2022-11-16T10:51:41.457Z,99.63
2022-11-16T10:52:41.468Z,99.22
2022-11-16T10:53:41.409Z,98.91
2022-11-16T10:54:44.278Z,99.58
2022-11-16T10:55:42.369Z,99.27
2022-11-16T10:56:41.352Z,99.38
2022-11-16T10:57:41.362Z,99.38
2022-11-16T10:58:41.316Z,99.38
2022-11-16T10:59:41.294Z,98.77
2022-11-16T11:00:41.361Z,98.86
2022-11-16T11:01:41.250Z,99.43
2022-11-16T11:02:41.257Z,99.54
2022-11-16T11:03:41.214Z,98.46
2022-11-16T11:04:41.276Z,99.58
2022-11-16T11:05:41.172Z,99.18
2022-11-16T11:06:41.154Z,98.25
2022-11-16T11:07:41.191Z,98.06
2022-11-16T11:08:41.112Z,96.84
2022-11-16T11:09:41.094Z,97.86
2022-11-16T11:10:41.073Z,97.50
2022-11-16T11:11:41.051Z,98.11
2022-11-16T11:12:41.059Z,96.79
2022-11-16T11:13:41.012Z,97.65
2022-11-16T11:14:40.997Z,98.06
2022-11-16T11:15:40.969Z,98.36
2022-11-16T11:16:40.953Z,98.72
2022-11-16T11:17:40.955Z,99.18
2022-11-16T11:18:40.907Z,98.43
2022-11-16T11:19:40.893Z,97.96
2022-11-16T11:20:44.850Z,98.52
2022-11-16T11:21:41.859Z,99.13
2022-11-16T11:22:40.854Z,99.02
2022-11-16T11:23:40.808Z,98.00
2022-11-16T11:24:45.355Z,97.70
2022-11-16T11:25:41.768Z,97.60
2022-11-16T11:26:40.749Z,97.45
2022-11-16T11:27:40.765Z,96.73
2022-11-16T11:28:40.705Z,96.89
2022-11-16T11:29:40.693Z,95.87
2022-11-16T11:30:40.670Z,95.92
2022-11-16T11:31:40.641Z,96.33
2022-11-16T11:32:40.649Z,95.77
2022-11-16T11:33:40.607Z,95.77
2022-11-16T11:34:40.588Z,95.67
2022-11-16T11:35:40.572Z,95.67
2022-11-16T11:36:40.620Z,94.50
2022-11-16T11:37:40.543Z,94.81
2022-11-16T11:38:40.500Z,93.48
2022-11-16T11:39:40.564Z,93.69
2022-11-16T11:40:40.459Z,93.69
2022-11-16T11:41:40.439Z,93.99
2022-11-16T11:42:40.449Z,93.74
2022-11-16T11:43:40.389Z,92.97
2022-11-16T11:44:40.375Z,93.64
2022-11-16T11:45:40.348Z,93.85
2022-11-16T11:47:28.710Z,92.58
2022-11-16T11:47:57.461Z,91.66
2022-11-16T11:48:42.327Z,92.72
2022-11-16T11:49:40.268Z,92.63
2022-11-16T11:50:40.248Z,92.93
2022-11-16T11:51:40.277Z,91.24
2022-11-16T11:52:40.207Z,92.36
2022-11-16T11:53:40.217Z,92.42
2022-11-16T11:54:45.528Z,91.26
2022-11-16T11:55:42.147Z,90.34
2022-11-16T11:56:40.139Z,91.09
2022-11-16T11:57:40.130Z,91.30
2022-11-16T11:58:40.097Z,91.40
2022-11-16T11:59:40.060Z,90.64
2022-11-16T12:00:40.178Z,90.50
2022-11-16T12:01:40.206Z,90.44
2022-11-16T12:02:40.108Z,90.24
2022-11-16T12:03:39.978Z,89.83
2022-11-16T12:04:39.977Z,89.69
2022-11-16T12:05:39.940Z,89.07
2022-11-16T12:06:43.751Z,88.57
2022-11-16T12:07:40.944Z,89.53
2022-11-16T12:08:39.872Z,90.18
2022-11-16T12:09:39.855Z,90.83
2022-11-16T12:11:20.714Z,91.35
2022-11-16T12:11:39.815Z,90.94
2022-11-16T12:12:39.878Z,91.03
2022-11-16T12:13:39.812Z,91.14
2022-11-16T12:14:39.755Z,91.18
2022-11-16T12:16:20.623Z,91.39
2022-11-16T12:16:39.729Z,91.35
2022-11-16T12:18:23.607Z,91.24
2022-11-16T12:18:39.700Z,91.39
2022-11-16T12:19:40.672Z,91.69
2022-11-16T12:20:39.664Z,91.39
2022-11-16T12:21:39.635Z,91.74
2022-11-16T12:22:39.631Z,91.74
2022-11-16T12:23:40.605Z,91.63
2022-11-16T12:24:39.635Z,91.39
2022-11-16T12:25:39.540Z,91.74
2022-11-16T12:26:39.520Z,92.50
2022-11-16T12:27:39.540Z,92.35
2022-11-16T12:28:39.482Z,90.98
2022-11-16T12:29:39.473Z,90.77
2022-11-16T12:30:39.434Z,91.12
2022-11-16T12:31:39.420Z,92.96
2022-11-16T12:32:39.428Z,91.94
2022-11-16T12:33:39.405Z,91.83
2022-11-16T12:34:39.365Z,92.19
2022-11-16T12:35:39.350Z,92.55
2022-11-16T12:36:39.311Z,91.57
2022-11-16T12:37:39.351Z,91.88
2022-11-16T12:39:20.385Z,91.47
2022-11-16T12:39:39.279Z,89.94
2022-11-16T12:40:39.322Z,90.29
2022-11-16T12:41:39.211Z,90.29
2022-11-16T12:42:40.192Z,89.88
2022-11-16T12:44:29.044Z,89.47
2022-11-16T12:44:39.179Z,89.78
2022-11-16T12:45:39.155Z,89.47
2022-11-16T12:47:25.996Z,88.45
2022-11-16T12:47:39.158Z,88.96
2022-11-16T12:48:39.109Z,89.11
2022-11-16T12:49:39.050Z,88.85
2022-11-16T12:50:39.042Z,89.98
2022-11-16T12:51:39.009Z,89.58
2022-11-16T12:52:39.033Z,89.61